sensor_id;sensor_type;location;lat;lon;timestamp;P1;durP1;ratioP1;P2;durP2;ratioP2
20657;SDS011;10488;50.846;4.078;2023-04-25T00:01:17;21.23;;;5.10;;
20657;SDS011;10488;50.846;4.078;2023-04-25T00:03:43;19.50;;;4.95;;
20657;SDS011;10488;50.846;4.078;2023-04-25T00:06:10;17.58;;;5.00;;
20657;SDS011;10488;50.846;4.078;2023-04-25T00:08:37;15.43;;;5.15;;
20657;SDS011;10488;50.846;4.078;2023-04-25T00:11:02;24.58;;;5.13;;
20657;SDS011;10488;50.846;4.078;2023-04-25T00:13:28;18.60;;;5.10;;
20657;SDS011;10488;50.846;4.078;2023-04-25T00:15:54;20.27;;;4.93;;
20657;SDS011;10488;50.846;4.078;2023-04-25T00:18:21;19.80;;;5.22;;
20657;SDS011;10488;50.846;4.078;2023-04-25T00:20:47;12.50;;;4.38;;
20657;SDS011;10488;50.846;4.078;2023-04-25T00:23:13;25.23;;;5.22;;
20657;SDS011;10488;50.846;4.078;2023-04-25T00:25:48;15.38;;;4.95;;
20657;SDS011;10488;50.846;4.078;2023-04-25T00:28:15;14.50;;;4.90;;
20657;SDS011;10488;50.846;4.078;2023-04-25T00:30:41;21.13;;;4.90;;
20657;SDS011;10488;50.846;4.078;2023-04-25T00:33:07;19.90;;;5.18;;
20657;SDS011;10488;50.846;4.078;2023-04-25T00:35:33;16.58;;;4.57;;
20657;SDS011;10488;50.846;4.078;2023-04-25T00:37:59;18.67;;;4.90;;
20657;SDS011;10488;50.846;4.078;2023-04-25T00:40:25;13.35;;;5.30;;
20657;SDS011;10488;50.846;4.078;2023-04-25T00:42:51;15.05;;;5.10;;
20657;SDS011;10488;50.846;4.078;2023-04-25T00:45:18;14.30;;;4.43;;
20657;SDS011;10488;50.846;4.078;2023-04-25T00:47:44;15.95;;;4.53;;
20657;SDS011;10488;50.846;4.078;2023-04-25T00:50:10;17.65;;;4.63;;
20657;SDS011;10488;50.846;4.078;2023-04-25T00:52:40;20.73;;;5.45;;
20657;SDS011;10488;50.846;4.078;2023-04-25T00:55:08;18.25;;;6.00;;
20657;SDS011;10488;50.846;4.078;2023-04-25T00:57:35;19.95;;;5.50;;
20657;SDS011;10488;50.846;4.078;2023-04-25T01:00:03;16.52;;;5.05;;
20657;SDS011;10488;50.846;4.078;2023-04-25T01:02:31;16.88;;;5.45;;
20657;SDS011;10488;50.846;4.078;2023-04-25T01:04:58;15.35;;;5.30;;
20657;SDS011;10488;50.846;4.078;2023-04-25T01:07:24;19.77;;;5.40;;
20657;SDS011;10488;50.846;4.078;2023-04-25T01:09:54;17.67;;;5.72;;
20657;SDS011;10488;50.846;4.078;2023-04-25T01:12:19;25.25;;;5.60;;
20657;SDS011;10488;50.846;4.078;2023-04-25T01:14:45;16.80;;;4.82;;
20657;SDS011;10488;50.846;4.078;2023-04-25T01:17:11;18.83;;;5.43;;
20657;SDS011;10488;50.846;4.078;2023-04-25T01:19:38;19.38;;;6.25;;
20657;SDS011;10488;50.846;4.078;2023-04-25T01:22:04;18.65;;;5.47;;
20657;SDS011;10488;50.846;4.078;2023-04-25T01:24:32;25.95;;;5.57;;
20657;SDS011;10488;50.846;4.078;2023-04-25T01:26:59;23.77;;;5.85;;
20657;SDS011;10488;50.846;4.078;2023-04-25T01:29:26;20.55;;;5.13;;
20657;SDS011;10488;50.846;4.078;2023-04-25T01:31:53;18.77;;;6.50;;
20657;SDS011;10488;50.846;4.078;2023-04-25T01:34:19;20.45;;;6.28;;
20657;SDS011;10488;50.846;4.078;2023-04-25T01:36:46;19.90;;;5.72;;
20657;SDS011;10488;50.846;4.078;2023-04-25T01:39:14;22.35;;;6.30;;
20657;SDS011;10488;50.846;4.078;2023-04-25T01:41:40;23.35;;;6.18;;
20657;SDS011;10488;50.846;4.078;2023-04-25T01:44:06;25.13;;;5.95;;
20657;SDS011;10488;50.846;4.078;2023-04-25T01:46:32;17.98;;;5.50;;
20657;SDS011;10488;50.846;4.078;2023-04-25T01:48:59;18.75;;;6.10;;
20657;SDS011;10488;50.846;4.078;2023-04-25T01:51:25;19.60;;;6.20;;
20657;SDS011;10488;50.846;4.078;2023-04-25T01:53:51;25.27;;;6.10;;
20657;SDS011;10488;50.846;4.078;2023-04-25T01:56:18;19.20;;;6.18;;
20657;SDS011;10488;50.846;4.078;2023-04-25T01:58:44;19.80;;;5.47;;
20657;SDS011;10488;50.846;4.078;2023-04-25T02:01:10;20.10;;;6.80;;
20657;SDS011;10488;50.846;4.078;2023-04-25T02:03:37;21.20;;;6.22;;
20657;SDS011;10488;50.846;4.078;2023-04-25T02:06:02;15.05;;;5.32;;
20657;SDS011;10488;50.846;4.078;2023-04-25T02:08:28;13.35;;;5.95;;
20657;SDS011;10488;50.846;4.078;2023-04-25T02:10:55;21.58;;;5.80;;
20657;SDS011;10488;50.846;4.078;2023-04-25T02:13:20;18.98;;;5.75;;
20657;SDS011;10488;50.846;4.078;2023-04-25T02:15:46;18.67;;;5.82;;
20657;SDS011;10488;50.846;4.078;2023-04-25T02:18:12;14.43;;;5.45;;
20657;SDS011;10488;50.846;4.078;2023-04-25T02:20:38;15.02;;;5.50;;
20657;SDS011;10488;50.846;4.078;2023-04-25T02:23:03;18.08;;;5.75;;
20657;SDS011;10488;50.846;4.078;2023-04-25T02:25:29;15.15;;;5.43;;
20657;SDS011;10488;50.846;4.078;2023-04-25T02:27:55;21.70;;;6.03;;
20657;SDS011;10488;50.846;4.078;2023-04-25T02:30:20;14.48;;;5.68;;
20657;SDS011;10488;50.846;4.078;2023-04-25T02:32:46;20.90;;;6.40;;
20657;SDS011;10488;50.846;4.078;2023-04-25T02:35:12;24.27;;;5.43;;
20657;SDS011;10488;50.846;4.078;2023-04-25T02:37:38;23.60;;;5.25;;
20657;SDS011;10488;50.846;4.078;2023-04-25T02:40:04;16.20;;;5.15;;
20657;SDS011;10488;50.846;4.078;2023-04-25T02:42:31;21.17;;;5.10;;
20657;SDS011;10488;50.846;4.078;2023-04-25T02:44:56;17.52;;;5.80;;
20657;SDS011;10488;50.846;4.078;2023-04-25T02:47:22;20.33;;;5.30;;
20657;SDS011;10488;50.846;4.078;2023-04-25T02:49:48;20.88;;;5.80;;
20657;SDS011;10488;50.846;4.078;2023-04-25T02:52:14;21.80;;;5.55;;
20657;SDS011;10488;50.846;4.078;2023-04-25T02:54:40;22.45;;;5.43;;
20657;SDS011;10488;50.846;4.078;2023-04-25T02:57:06;20.38;;;5.63;;
20657;SDS011;10488;50.846;4.078;2023-04-25T02:59:32;17.40;;;4.65;;
20657;SDS011;10488;50.846;4.078;2023-04-25T03:01:58;20.40;;;4.97;;
20657;SDS011;10488;50.846;4.078;2023-04-25T03:04:23;23.90;;;5.35;;
20657;SDS011;10488;50.846;4.078;2023-04-25T03:06:50;21.60;;;4.57;;
20657;SDS011;10488;50.846;4.078;2023-04-25T03:09:16;19.92;;;5.20;;
20657;SDS011;10488;50.846;4.078;2023-04-25T03:11:41;16.17;;;5.25;;
20657;SDS011;10488;50.846;4.078;2023-04-25T03:14:07;19.83;;;4.65;;
20657;SDS011;10488;50.846;4.078;2023-04-25T03:16:33;25.20;;;5.13;;
20657;SDS011;10488;50.846;4.078;2023-04-25T03:18:59;24.80;;;4.63;;
20657;SDS011;10488;50.846;4.078;2023-04-25T03:21:25;19.52;;;5.15;;
20657;SDS011;10488;50.846;4.078;2023-04-25T03:23:51;28.20;;;6.43;;
20657;SDS011;10488;50.846;4.078;2023-04-25T03:26:17;20.13;;;5.70;;
20657;SDS011;10488;50.846;4.078;2023-04-25T03:28:43;19.10;;;4.50;;
20657;SDS011;10488;50.846;4.078;2023-04-25T03:31:08;24.27;;;5.57;;
20657;SDS011;10488;50.846;4.078;2023-04-25T03:33:34;20.70;;;4.75;;
20657;SDS011;10488;50.846;4.078;2023-04-25T03:36:00;21.73;;;5.18;;
20657;SDS011;10488;50.846;4.078;2023-04-25T03:38:25;27.95;;;5.82;;
20657;SDS011;10488;50.846;4.078;2023-04-25T03:40:51;19.55;;;5.05;;
20657;SDS011;10488;50.846;4.078;2023-04-25T03:43:17;23.90;;;5.00;;
20657;SDS011;10488;50.846;4.078;2023-04-25T03:45:42;20.15;;;5.20;;
20657;SDS011;10488;50.846;4.078;2023-04-25T03:48:08;22.25;;;5.38;;
20657;SDS011;10488;50.846;4.078;2023-04-25T03:50:34;22.92;;;5.45;;
20657;SDS011;10488;50.846;4.078;2023-04-25T03:52:59;24.65;;;4.93;;
20657;SDS011;10488;50.846;4.078;2023-04-25T03:55:25;20.58;;;5.07;;
20657;SDS011;10488;50.846;4.078;2023-04-25T03:57:51;19.65;;;5.15;;
20657;SDS011;10488;50.846;4.078;2023-04-25T04:00:16;21.17;;;5.32;;
20657;SDS011;10488;50.846;4.078;2023-04-25T04:02:42;19.60;;;4.93;;
20657;SDS011;10488;50.846;4.078;2023-04-25T04:05:08;20.13;;;5.72;;
20657;SDS011;10488;50.846;4.078;2023-04-25T04:07:34;18.02;;;4.70;;
20657;SDS011;10488;50.846;4.078;2023-04-25T04:10:05;19.10;;;5.60;;
20657;SDS011;10488;50.846;4.078;2023-04-25T04:12:34;15.00;;;4.53;;
20657;SDS011;10488;50.846;4.078;2023-04-25T04:15:04;24.08;;;5.28;;
20657;SDS011;10488;50.846;4.078;2023-04-25T04:17:31;15.90;;;5.22;;
20657;SDS011;10488;50.846;4.078;2023-04-25T04:19:57;18.05;;;4.95;;
20657;SDS011;10488;50.846;4.078;2023-04-25T04:22:23;24.27;;;6.03;;
20657;SDS011;10488;50.846;4.078;2023-04-25T04:24:49;30.75;;;6.13;;
20657;SDS011;10488;50.846;4.078;2023-04-25T04:27:18;19.88;;;5.15;;
20657;SDS011;10488;50.846;4.078;2023-04-25T04:29:45;17.77;;;5.35;;
20657;SDS011;10488;50.846;4.078;2023-04-25T04:32:11;18.38;;;5.97;;
20657;SDS011;10488;50.846;4.078;2023-04-25T04:34:38;15.52;;;5.20;;
20657;SDS011;10488;50.846;4.078;2023-04-25T04:37:04;21.13;;;5.45;;
20657;SDS011;10488;50.846;4.078;2023-04-25T04:39:31;22.70;;;5.70;;
20657;SDS011;10488;50.846;4.078;2023-04-25T04:41:58;24.58;;;5.78;;
20657;SDS011;10488;50.846;4.078;2023-04-25T04:44:24;14.30;;;5.38;;
20657;SDS011;10488;50.846;4.078;2023-04-25T04:46:50;15.65;;;4.68;;
20657;SDS011;10488;50.846;4.078;2023-04-25T04:49:16;12.10;;;4.78;;
20657;SDS011;10488;50.846;4.078;2023-04-25T04:51:42;14.90;;;4.88;;
20657;SDS011;10488;50.846;4.078;2023-04-25T04:54:12;14.63;;;5.15;;
20657;SDS011;10488;50.846;4.078;2023-04-25T04:56:38;16.00;;;5.05;;
20657;SDS011;10488;50.846;4.078;2023-04-25T04:59:03;15.95;;;4.35;;
20657;SDS011;10488;50.846;4.078;2023-04-25T05:01:29;13.18;;;4.78;;
20657;SDS011;10488;50.846;4.078;2023-04-25T05:03:55;23.92;;;5.40;;
20657;SDS011;10488;50.846;4.078;2023-04-25T05:06:25;17.90;;;4.82;;
20657;SDS011;10488;50.846;4.078;2023-04-25T05:08:51;11.05;;;4.28;;
20657;SDS011;10488;50.846;4.078;2023-04-25T05:11:18;21.27;;;4.28;;
20657;SDS011;10488;50.846;4.078;2023-04-25T05:13:44;15.38;;;4.70;;
20657;SDS011;10488;50.846;4.078;2023-04-25T05:16:10;10.60;;;4.22;;
20657;SDS011;10488;50.846;4.078;2023-04-25T05:18:36;21.98;;;4.38;;
20657;SDS011;10488;50.846;4.078;2023-04-25T05:21:02;10.80;;;3.72;;
20657;SDS011;10488;50.846;4.078;2023-04-25T05:23:28;21.38;;;4.22;;
20657;SDS011;10488;50.846;4.078;2023-04-25T05:25:55;12.55;;;3.72;;
20657;SDS011;10488;50.846;4.078;2023-04-25T05:28:21;13.65;;;4.45;;
20657;SDS011;10488;50.846;4.078;2023-04-25T05:30:46;17.30;;;3.75;;
20657;SDS011;10488;50.846;4.078;2023-04-25T05:33:12;13.73;;;3.97;;
20657;SDS011;10488;50.846;4.078;2023-04-25T05:35:41;15.75;;;4.68;;
20657;SDS011;10488;50.846;4.078;2023-04-25T05:38:07;16.52;;;4.28;;
20657;SDS011;10488;50.846;4.078;2023-04-25T05:40:32;13.10;;;3.45;;
20657;SDS011;10488;50.846;4.078;2023-04-25T05:42:58;16.58;;;4.25;;
20657;SDS011;10488;50.846;4.078;2023-04-25T05:45:24;16.65;;;4.43;;
20657;SDS011;10488;50.846;4.078;2023-04-25T05:47:49;15.05;;;4.47;;
20657;SDS011;10488;50.846;4.078;2023-04-25T05:50:15;12.07;;;4.00;;
20657;SDS011;10488;50.846;4.078;2023-04-25T05:52:41;11.07;;;3.97;;
20657;SDS011;10488;50.846;4.078;2023-04-25T05:55:06;8.95;;;3.75;;
20657;SDS011;10488;50.846;4.078;2023-04-25T05:57:32;18.77;;;4.55;;
20657;SDS011;10488;50.846;4.078;2023-04-25T05:59:58;19.33;;;4.35;;
20657;SDS011;10488;50.846;4.078;2023-04-25T06:02:24;14.60;;;3.70;;
20657;SDS011;10488;50.846;4.078;2023-04-25T06:04:50;15.85;;;4.05;;
20657;SDS011;10488;50.846;4.078;2023-04-25T06:07:16;17.25;;;4.13;;
20657;SDS011;10488;50.846;4.078;2023-04-25T06:09:43;12.32;;;4.10;;
20657;SDS011;10488;50.846;4.078;2023-04-25T06:12:09;20.10;;;4.55;;
20657;SDS011;10488;50.846;4.078;2023-04-25T06:14:35;10.65;;;3.13;;
20657;SDS011;10488;50.846;4.078;2023-04-25T06:17:01;14.77;;;4.28;;
20657;SDS011;10488;50.846;4.078;2023-04-25T06:19:34;15.38;;;3.30;;
20657;SDS011;10488;50.846;4.078;2023-04-25T06:22:01;12.68;;;3.92;;
20657;SDS011;10488;50.846;4.078;2023-04-25T06:24:27;12.55;;;3.70;;
20657;SDS011;10488;50.846;4.078;2023-04-25T06:26:53;13.75;;;4.20;;
20657;SDS011;10488;50.846;4.078;2023-04-25T06:29:19;14.73;;;3.80;;
20657;SDS011;10488;50.846;4.078;2023-04-25T06:31:45;11.20;;;3.58;;
20657;SDS011;10488;50.846;4.078;2023-04-25T06:34:11;10.00;;;4.03;;
20657;SDS011;10488;50.846;4.078;2023-04-25T06:36:37;18.63;;;6.35;;
20657;SDS011;10488;50.846;4.078;2023-04-25T06:39:02;19.13;;;4.53;;
20657;SDS011;10488;50.846;4.078;2023-04-25T06:41:28;18.15;;;4.82;;
20657;SDS011;10488;50.846;4.078;2023-04-25T06:43:54;10.93;;;3.95;;
20657;SDS011;10488;50.846;4.078;2023-04-25T06:46:19;15.32;;;3.88;;
20657;SDS011;10488;50.846;4.078;2023-04-25T06:48:45;12.07;;;4.13;;
20657;SDS011;10488;50.846;4.078;2023-04-25T06:51:11;16.77;;;4.18;;
20657;SDS011;10488;50.846;4.078;2023-04-25T06:53:38;16.27;;;4.07;;
20657;SDS011;10488;50.846;4.078;2023-04-25T06:56:05;18.67;;;4.05;;
20657;SDS011;10488;50.846;4.078;2023-04-25T06:58:31;11.02;;;3.45;;
20657;SDS011;10488;50.846;4.078;2023-04-25T07:00:57;14.85;;;4.35;;
20657;SDS011;10488;50.846;4.078;2023-04-25T07:03:22;9.52;;;3.30;;
20657;SDS011;10488;50.846;4.078;2023-04-25T07:05:48;14.98;;;3.80;;
20657;SDS011;10488;50.846;4.078;2023-04-25T07:08:15;14.18;;;3.80;;
20657;SDS011;10488;50.846;4.078;2023-04-25T07:10:40;12.43;;;3.60;;
20657;SDS011;10488;50.846;4.078;2023-04-25T07:13:06;12.15;;;3.83;;
20657;SDS011;10488;50.846;4.078;2023-04-25T07:15:32;12.07;;;3.65;;
20657;SDS011;10488;50.846;4.078;2023-04-25T07:17:58;16.08;;;3.90;;
20657;SDS011;10488;50.846;4.078;2023-04-25T07:20:24;19.20;;;5.43;;
20657;SDS011;10488;50.846;4.078;2023-04-25T07:22:50;10.95;;;3.92;;
20657;SDS011;10488;50.846;4.078;2023-04-25T07:25:16;10.63;;;4.30;;
20657;SDS011;10488;50.846;4.078;2023-04-25T07:27:42;14.02;;;4.20;;
20657;SDS011;10488;50.846;4.078;2023-04-25T07:30:08;33.85;;;13.70;;
20657;SDS011;10488;50.846;4.078;2023-04-25T07:32:34;18.10;;;6.13;;
20657;SDS011;10488;50.846;4.078;2023-04-25T07:35:00;13.18;;;5.57;;
20657;SDS011;10488;50.846;4.078;2023-04-25T07:37:26;13.68;;;3.42;;
20657;SDS011;10488;50.846;4.078;2023-04-25T07:39:52;13.85;;;3.33;;
20657;SDS011;10488;50.846;4.078;2023-04-25T07:42:18;15.63;;;2.97;;
20657;SDS011;10488;50.846;4.078;2023-04-25T07:44:43;11.02;;;2.97;;
20657;SDS011;10488;50.846;4.078;2023-04-25T07:47:09;13.18;;;2.67;;
20657;SDS011;10488;50.846;4.078;2023-04-25T07:49:36;11.32;;;2.67;;
20657;SDS011;10488;50.846;4.078;2023-04-25T07:52:03;6.38;;;2.28;;
20657;SDS011;10488;50.846;4.078;2023-04-25T07:54:30;13.50;;;3.08;;
20657;SDS011;10488;50.846;4.078;2023-04-25T07:56:56;11.70;;;3.50;;
20657;SDS011;10488;50.846;4.078;2023-04-25T07:59:22;19.55;;;5.97;;
20657;SDS011;10488;50.846;4.078;2023-04-25T08:01:48;9.95;;;2.72;;
20657;SDS011;10488;50.846;4.078;2023-04-25T08:04:13;10.27;;;3.08;;
20657;SDS011;10488;50.846;4.078;2023-04-25T08:06:39;13.73;;;2.72;;
20657;SDS011;10488;50.846;4.078;2023-04-25T08:09:05;7.22;;;2.47;;
20657;SDS011;10488;50.846;4.078;2023-04-25T08:11:31;16.65;;;3.00;;
20657;SDS011;10488;50.846;4.078;2023-04-25T08:13:57;11.77;;;2.30;;
20657;SDS011;10488;50.846;4.078;2023-04-25T08:16:23;9.40;;;2.72;;
20657;SDS011;10488;50.846;4.078;2023-04-25T08:18:49;10.30;;;2.35;;
20657;SDS011;10488;50.846;4.078;2023-04-25T08:21:15;10.10;;;2.55;;
20657;SDS011;10488;50.846;4.078;2023-04-25T08:23:41;10.48;;;1.85;;
20657;SDS011;10488;50.846;4.078;2023-04-25T08:26:07;7.22;;;1.95;;
20657;SDS011;10488;50.846;4.078;2023-04-25T08:28:32;9.15;;;2.00;;
20657;SDS011;10488;50.846;4.078;2023-04-25T08:30:58;6.13;;;2.17;;
20657;SDS011;10488;50.846;4.078;2023-04-25T08:33:24;9.57;;;2.13;;
20657;SDS011;10488;50.846;4.078;2023-04-25T08:35:50;10.27;;;2.60;;
20657;SDS011;10488;50.846;4.078;2023-04-25T08:38:17;16.73;;;5.30;;
20657;SDS011;10488;50.846;4.078;2023-04-25T08:40:43;4.57;;;1.30;;
20657;SDS011;10488;50.846;4.078;2023-04-25T08:43:09;8.35;;;2.38;;
20657;SDS011;10488;50.846;4.078;2023-04-25T08:45:40;30.15;;;15.02;;
20657;SDS011;10488;50.846;4.078;2023-04-25T08:48:11;12.60;;;4.22;;
20657;SDS011;10488;50.846;4.078;2023-04-25T08:50:51;22.85;;;12.07;;
20657;SDS011;10488;50.846;4.078;2023-04-25T08:53:21;9.32;;;3.47;;
20657;SDS011;10488;50.846;4.078;2023-04-25T08:55:50;6.28;;;2.58;;
20657;SDS011;10488;50.846;4.078;2023-04-25T08:58:20;9.38;;;2.20;;
20657;SDS011;10488;50.846;4.078;2023-04-25T09:00:46;9.55;;;2.03;;
20657;SDS011;10488;50.846;4.078;2023-04-25T09:03:13;6.53;;;1.90;;
20657;SDS011;10488;50.846;4.078;2023-04-25T09:05:40;11.98;;;2.00;;
20657;SDS011;10488;50.846;4.078;2023-04-25T09:08:05;8.48;;;2.13;;
20657;SDS011;10488;50.846;4.078;2023-04-25T09:10:32;9.13;;;2.05;;
20657;SDS011;10488;50.846;4.078;2023-04-25T09:13:07;6.13;;;1.60;;
20657;SDS011;10488;50.846;4.078;2023-04-25T09:15:48;8.02;;;1.98;;
20657;SDS011;10488;50.846;4.078;2023-04-25T09:18:32;7.30;;;1.77;;
20657;SDS011;10488;50.846;4.078;2023-04-25T09:23:41;4.68;;;1.63;;
20657;SDS011;10488;50.846;4.078;2023-04-25T09:26:09;5.10;;;1.90;;
20657;SDS011;10488;50.846;4.078;2023-04-25T09:28:38;9.75;;;2.10;;
20657;SDS011;10488;50.846;4.078;2023-04-25T09:31:04;8.45;;;1.73;;
20657;SDS011;10488;50.846;4.078;2023-04-25T09:33:31;7.40;;;2.15;;
20657;SDS011;10488;50.846;4.078;2023-04-25T09:36:02;11.20;;;1.95;;
20657;SDS011;10488;50.846;4.078;2023-04-25T09:38:36;5.53;;;1.58;;
20657;SDS011;10488;50.846;4.078;2023-04-25T09:41:09;5.57;;;1.77;;
20657;SDS011;10488;50.846;4.078;2023-04-25T09:43:35;6.03;;;1.65;;
20657;SDS011;10488;50.846;4.078;2023-04-25T09:46:02;20.83;;;10.68;;
20657;SDS011;10488;50.846;4.078;2023-04-25T09:48:32;10.23;;;3.70;;
20657;SDS011;10488;50.846;4.078;2023-04-25T09:53:39;12.32;;;3.13;;
20657;SDS011;10488;50.846;4.078;2023-04-25T09:56:07;8.63;;;1.40;;
20657;SDS011;10488;50.846;4.078;2023-04-25T09:58:35;9.90;;;2.50;;
20657;SDS011;10488;50.846;4.078;2023-04-25T10:01:03;5.70;;;1.80;;
20657;SDS011;10488;50.846;4.078;2023-04-25T10:03:33;9.35;;;2.28;;
20657;SDS011;10488;50.846;4.078;2023-04-25T10:06:01;5.90;;;2.17;;
20657;SDS011;10488;50.846;4.078;2023-04-25T10:08:31;5.13;;;1.38;;
20657;SDS011;10488;50.846;4.078;2023-04-25T10:10:59;5.95;;;1.55;;
20657;SDS011;10488;50.846;4.078;2023-04-25T10:13:27;5.85;;;1.52;;
20657;SDS011;10488;50.846;4.078;2023-04-25T10:15:57;6.03;;;2.28;;
20657;SDS011;10488;50.846;4.078;2023-04-25T10:18:27;5.45;;;1.20;;
20657;SDS011;10488;50.846;4.078;2023-04-25T10:20:55;2.88;;;1.30;;
20657;SDS011;10488;50.846;4.078;2023-04-25T10:23:23;5.03;;;1.98;;
20657;SDS011;10488;50.846;4.078;2023-04-25T10:25:52;9.10;;;2.30;;
20657;SDS011;10488;50.846;4.078;2023-04-25T10:28:19;8.70;;;1.33;;
20657;SDS011;10488;50.846;4.078;2023-04-25T10:36:08;6.38;;;1.58;;
20657;SDS011;10488;50.846;4.078;2023-04-25T10:38:35;6.90;;;2.38;;
20657;SDS011;10488;50.846;4.078;2023-04-25T10:41:06;10.38;;;1.67;;
20657;SDS011;10488;50.846;4.078;2023-04-25T10:43:43;4.72;;;1.90;;
20657;SDS011;10488;50.846;4.078;2023-04-25T10:46:14;4.35;;;1.58;;
20657;SDS011;10488;50.846;4.078;2023-04-25T10:48:47;11.13;;;4.45;;
20657;SDS011;10488;50.846;4.078;2023-04-25T10:51:27;7.05;;;3.30;;
20657;SDS011;10488;50.846;4.078;2023-04-25T10:56:27;2.92;;;1.35;;
20657;SDS011;10488;50.846;4.078;2023-04-25T10:59:08;11.27;;;5.78;;
20657;SDS011;10488;50.846;4.078;2023-04-25T11:01:42;3.22;;;1.98;;
20657;SDS011;10488;50.846;4.078;2023-04-25T11:09:40;5.07;;;1.60;;
20657;SDS011;10488;50.846;4.078;2023-04-25T11:12:07;3.95;;;1.60;;
20657;SDS011;10488;50.846;4.078;2023-04-25T11:14:34;5.47;;;1.60;;
20657;SDS011;10488;50.846;4.078;2023-04-25T11:17:00;5.10;;;1.15;;
20657;SDS011;10488;50.846;4.078;2023-04-25T11:19:27;2.10;;;1.00;;
20657;SDS011;10488;50.846;4.078;2023-04-25T11:22:00;3.80;;;1.20;;
20657;SDS011;10488;50.846;4.078;2023-04-25T11:24:27;5.30;;;1.10;;
20657;SDS011;10488;50.846;4.078;2023-04-25T11:27:03;3.30;;;1.40;;
20657;SDS011;10488;50.846;4.078;2023-04-25T11:29:31;2.95;;;1.13;;
20657;SDS011;10488;50.846;4.078;2023-04-25T11:31:58;9.38;;;3.50;;
20657;SDS011;10488;50.846;4.078;2023-04-25T11:34:25;7.10;;;1.65;;
20657;SDS011;10488;50.846;4.078;2023-04-25T11:36:52;7.03;;;2.75;;
20657;SDS011;10488;50.846;4.078;2023-04-25T11:39:19;9.82;;;4.45;;
20657;SDS011;10488;50.846;4.078;2023-04-25T11:41:45;17.20;;;5.35;;
20657;SDS011;10488;50.846;4.078;2023-04-25T11:44:11;10.98;;;5.55;;
20657;SDS011;10488;50.846;4.078;2023-04-25T11:46:40;6.63;;;3.58;;
20657;SDS011;10488;50.846;4.078;2023-04-25T11:49:05;4.72;;;1.30;;
20657;SDS011;10488;50.846;4.078;2023-04-25T11:51:37;3.83;;;1.58;;
20657;SDS011;10488;50.846;4.078;2023-04-25T11:54:08;2.85;;;1.50;;
20657;SDS011;10488;50.846;4.078;2023-04-25T11:56:33;6.85;;;2.92;;
20657;SDS011;10488;50.846;4.078;2023-04-25T11:59:00;6.97;;;2.83;;
20657;SDS011;10488;50.846;4.078;2023-04-25T12:01:34;6.65;;;2.58;;
20657;SDS011;10488;50.846;4.078;2023-04-25T12:04:11;9.20;;;1.52;;
20657;SDS011;10488;50.846;4.078;2023-04-25T12:06:42;11.55;;;7.32;;
20657;SDS011;10488;50.846;4.078;2023-04-25T12:09:10;1.67;;;0.95;;
20657;SDS011;10488;50.846;4.078;2023-04-25T12:11:41;4.35;;;1.30;;
20657;SDS011;10488;50.846;4.078;2023-04-25T12:14:12;8.25;;;2.20;;
20657;SDS011;10488;50.846;4.078;2023-04-25T12:16:46;2.22;;;0.88;;
20657;SDS011;10488;50.846;4.078;2023-04-25T12:19:13;4.55;;;1.13;;
20657;SDS011;10488;50.846;4.078;2023-04-25T12:21:44;3.75;;;0.98;;
20657;SDS011;10488;50.846;4.078;2023-04-25T12:24:44;3.22;;;1.52;;
20657;SDS011;10488;50.846;4.078;2023-04-25T12:27:03;4.63;;;1.52;;
20657;SDS011;10488;50.846;4.078;2023-04-25T12:29:31;5.53;;;1.45;;
20657;SDS011;10488;50.846;4.078;2023-04-25T12:31:57;6.38;;;1.50;;
20657;SDS011;10488;50.846;4.078;2023-04-25T12:34:23;8.38;;;1.77;;
20657;SDS011;10488;50.846;4.078;2023-04-25T12:36:50;5.07;;;1.50;;
20657;SDS011;10488;50.846;4.078;2023-04-25T12:41:43;5.30;;;1.30;;
20657;SDS011;10488;50.846;4.078;2023-04-25T12:44:09;4.03;;;1.40;;
20657;SDS011;10488;50.846;4.078;2023-04-25T12:46:35;4.82;;;1.58;;
20657;SDS011;10488;50.846;4.078;2023-04-25T12:49:01;5.03;;;1.60;;
20657;SDS011;10488;50.846;4.078;2023-04-25T12:51:28;2.63;;;1.02;;
20657;SDS011;10488;50.846;4.078;2023-04-25T12:53:54;7.30;;;1.90;;
20657;SDS011;10488;50.846;4.078;2023-04-25T12:56:20;5.07;;;2.05;;
20657;SDS011;10488;50.846;4.078;2023-04-25T12:58:46;5.03;;;1.30;;
20657;SDS011;10488;50.846;4.078;2023-04-25T13:01:13;3.72;;;1.00;;
20657;SDS011;10488;50.846;4.078;2023-04-25T13:03:39;6.15;;;1.70;;
20657;SDS011;10488;50.846;4.078;2023-04-25T13:06:06;3.35;;;1.40;;
20657;SDS011;10488;50.846;4.078;2023-04-25T13:08:32;6.28;;;1.83;;
20657;SDS011;10488;50.846;4.078;2023-04-25T13:10:58;8.07;;;2.22;;
20657;SDS011;10488;50.846;4.078;2023-04-25T13:13:23;6.90;;;1.90;;
20657;SDS011;10488;50.846;4.078;2023-04-25T13:15:49;6.85;;;1.90;;
20657;SDS011;10488;50.846;4.078;2023-04-25T13:18:15;5.93;;;1.70;;
20657;SDS011;10488;50.846;4.078;2023-04-25T13:20:41;4.65;;;1.58;;
20657;SDS011;10488;50.846;4.078;2023-04-25T13:23:06;5.20;;;1.48;;
20657;SDS011;10488;50.846;4.078;2023-04-25T13:25:32;5.43;;;2.17;;
20657;SDS011;10488;50.846;4.078;2023-04-25T13:27:58;4.13;;;1.75;;
20657;SDS011;10488;50.846;4.078;2023-04-25T13:30:23;6.45;;;2.80;;
20657;SDS011;10488;50.846;4.078;2023-04-25T13:32:49;5.55;;;1.60;;
20657;SDS011;10488;50.846;4.078;2023-04-25T13:35:16;6.20;;;3.30;;
20657;SDS011;10488;50.846;4.078;2023-04-25T13:37:42;15.02;;;5.28;;
20657;SDS011;10488;50.846;4.078;2023-04-25T13:40:08;8.55;;;2.92;;
20657;SDS011;10488;50.846;4.078;2023-04-25T13:42:36;13.85;;;5.13;;
20657;SDS011;10488;50.846;4.078;2023-04-25T13:45:03;5.05;;;1.90;;
20657;SDS011;10488;50.846;4.078;2023-04-25T13:47:29;10.38;;;2.80;;
20657;SDS011;10488;50.846;4.078;2023-04-25T13:49:55;5.88;;;1.48;;
20657;SDS011;10488;50.846;4.078;2023-04-25T13:52:21;5.50;;;2.03;;
20657;SDS011;10488;50.846;4.078;2023-04-25T13:54:49;11.00;;;2.00;;
20657;SDS011;10488;50.846;4.078;2023-04-25T13:57:15;5.32;;;1.45;;
20657;SDS011;10488;50.846;4.078;2023-04-25T13:59:41;6.85;;;1.45;;
20657;SDS011;10488;50.846;4.078;2023-04-25T14:02:07;5.15;;;1.60;;
20657;SDS011;10488;50.846;4.078;2023-04-25T14:04:33;46.97;;;25.55;;
20657;SDS011;10488;50.846;4.078;2023-04-25T14:06:59;7.65;;;3.05;;
20657;SDS011;10488;50.846;4.078;2023-04-25T14:09:24;8.63;;;1.73;;
20657;SDS011;10488;50.846;4.078;2023-04-25T14:11:52;5.60;;;1.58;;
20657;SDS011;10488;50.846;4.078;2023-04-25T14:14:18;5.78;;;1.77;;
20657;SDS011;10488;50.846;4.078;2023-04-25T14:16:44;5.68;;;1.20;;
20657;SDS011;10488;50.846;4.078;2023-04-25T14:19:13;7.78;;;3.25;;
20657;SDS011;10488;50.846;4.078;2023-04-25T14:21:39;5.78;;;1.75;;
20657;SDS011;10488;50.846;4.078;2023-04-25T14:24:05;9.98;;;1.80;;
20657;SDS011;10488;50.846;4.078;2023-04-25T14:26:32;6.15;;;1.92;;
20657;SDS011;10488;50.846;4.078;2023-04-25T14:28:59;4.05;;;1.92;;
20657;SDS011;10488;50.846;4.078;2023-04-25T14:31:25;10.10;;;3.40;;
20657;SDS011;10488;50.846;4.078;2023-04-25T14:33:51;7.18;;;3.83;;
20657;SDS011;10488;50.846;4.078;2023-04-25T14:36:16;6.20;;;2.00;;
20657;SDS011;10488;50.846;4.078;2023-04-25T14:38:42;8.30;;;1.63;;
20657;SDS011;10488;50.846;4.078;2023-04-25T14:41:08;7.25;;;1.50;;
20657;SDS011;10488;50.846;4.078;2023-04-25T14:43:34;4.78;;;2.42;;
20657;SDS011;10488;50.846;4.078;2023-04-25T14:46:01;4.18;;;1.50;;
20657;SDS011;10488;50.846;4.078;2023-04-25T14:48:27;6.55;;;1.50;;
20657;SDS011;10488;50.846;4.078;2023-04-25T14:50:53;10.70;;;1.55;;
20657;SDS011;10488;50.846;4.078;2023-04-25T14:53:19;9.02;;;2.53;;
20657;SDS011;10488;50.846;4.078;2023-04-25T14:55:44;10.52;;;1.63;;
20657;SDS011;10488;50.846;4.078;2023-04-25T14:58:10;4.32;;;1.67;;